Time;durP1;ratioP1;P1;durP2;ratioP2;P2;SDS_P1;SDS_P2;PMS_P1;PMS_P2;Temp;Humidity;BMP_temperature;BMP_pressure;BME280_temperature;BME280_humidity;BME280_pressure;Samples;Min_cycle;Max_cycle;Signal;HPM_P1;HPM_P2
2024/01/14 00:01:52;;;;;;;12.85;4.25;;;;;;;;;;5065203;28;20052;-75
2024/01/14 00:04:22;;;;;;;14.88;3.38;;;;;;;;;;5064481;28;21058;-73
2024/01/14 00:06:52;;;;;;;7.18;2.10;;;;;;;;;;5065128;28;20423;-75
2024/01/14 00:09:25;;;;;;;9.40;2.85;;;;;;;;;;5064290;28;20052;-74
2024/01/14 00:11:56;;;;;;;13.80;3.00;;;;;;;;;;5064379;28;20503;-78
2024/01/14 00:14:26;;;;;;;11.02;2.70;;;;;;;;;;5064551;28;20055;-73
2024/01/14 00:16:57;;;;;;;8.07;2.67;;;;;;;;;;5064629;28;20055;-75
2024/01/14 00:19:27;;;;;;;8.75;2.60;;;;;;;;;;5064327;28;20514;-75
2024/01/14 00:21:58;;;;;;;6.75;2.72;;;;;;;;;;5064016;28;20048;-73
2024/01/14 00:24:28;;;;;;;13.25;2.80;;;;;;;;;;5063688;28;20052;-72
2024/01/14 00:26:59;;;;;;;7.65;3.08;;;;;;;;;;5064753;28;20044;-75
2024/01/14 00:29:30;;;;;;;10.15;2.63;;;;;;;;;;5063161;28;20045;-74
2024/01/14 00:32:02;;;;;;;6.32;2.50;;;;;;;;;;5064696;28;20059;-74
2024/01/14 00:34:32;;;;;;;6.60;2.55;;;;;;;;;;5064395;28;20415;-74
2024/01/14 00:37:02;;;;;;;10.05;2.80;;;;;;;;;;5063286;28;20052;-74
2024/01/14 00:39:36;;;;;;;7.43;2.78;;;;;;;;;;5064222;28;20502;-74
2024/01/14 00:42:08;;;;;;;8.65;2.92;;;;;;;;;;5063229;28;20606;-73
2024/01/14 00:44:42;;;;;;;7.95;3.00;;;;;;;;;;5064548;28;20048;-74
2024/01/14 00:47:12;;;;;;;8.02;2.85;;;;;;;;;;5064047;28;20053;-75
2024/01/14 00:49:42;;;;;;;8.35;2.15;;;;;;;;;;5064493;28;20044;-75
2024/01/14 00:52:13;;;;;;;10.43;3.40;;;;;;;;;;5063443;28;20052;-74
2024/01/14 00:54:44;;;;;;;4.80;2.90;;;;;;;;;;5063116;28;20036;-74
2024/01/14 00:57:16;;;;;;;9.05;3.33;;;;;;;;;;5061917;28;20594;-73
2024/01/14 00:59:47;;;;;;;7.68;3.20;;;;;;;;;;5062640;28;20048;-74
2024/01/14 01:02:17;;;;;;;5.25;2.55;;;;;;;;;;5063765;28;20395;-73
2024/01/14 01:04:47;;;;;;;10.40;2.95;;;;;;;;;;5063178;28;20045;-74
2024/01/14 01:07:20;;;;;;;11.57;3.05;;;;;;;;;;5062654;28;20056;-75
2024/01/14 01:09:50;;;;;;;5.97;3.05;;;;;;;;;;5063249;28;20056;-74
2024/01/14 01:12:21;;;;;;;11.45;3.45;;;;;;;;;;5062172;28;20052;-77
2024/01/14 01:14:53;;;;;;;7.72;2.75;;;;;;;;;;5063433;28;20052;-74
2024/01/14 01:17:24;;;;;;;7.28;2.97;;;;;;;;;;5063103;28;20393;-75
2024/01/14 01:19:54;;;;;;;8.02;2.80;;;;;;;;;;5062614;28;20447;-73
2024/01/14 01:22:24;;;;;;;7.40;2.75;;;;;;;;;;5063569;28;20051;-73
2024/01/14 01:24:55;;;;;;;6.00;2.78;;;;;;;;;;5063612;28;20052;-74
2024/01/14 01:27:29;;;;;;;9.80;2.80;;;;;;;;;;5063620;28;20041;-74
2024/01/14 01:30:00;;;;;;;7.05;3.10;;;;;;;;;;5062287;28;20048;-74
2024/01/14 01:32:30;;;;;;;7.10;2.75;;;;;;;;;;5062903;28;20518;-73
2024/01/14 01:35:01;;;;;;;6.55;2.55;;;;;;;;;;5061243;28;20504;-75
2024/01/14 01:37:32;;;;;;;6.53;2.92;;;;;;;;;;5062480;28;20048;-75
2024/01/14 01:40:04;;;;;;;5.50;3.00;;;;;;;;;;5062971;28;20496;-74
2024/01/14 01:42:35;;;;;;;6.97;3.20;;;;;;;;;;5061584;28;20480;-74
2024/01/14 01:45:05;;;;;;;3.28;2.28;;;;;;;;;;5062693;28;20036;-72
2024/01/14 01:47:37;;;;;;;14.45;2.97;;;;;;;;;;5060878;28;20063;-74
2024/01/14 01:50:09;;;;;;;6.53;2.92;;;;;;;;;;5062036;28;20052;-74
2024/01/14 01:52:40;;;;;;;6.22;2.70;;;;;;;;;;5063259;28;20052;-73
2024/01/14 01:55:11;;;;;;;8.45;2.60;;;;;;;;;;5062236;28;20052;-73
2024/01/14 01:57:42;;;;;;;8.43;2.97;;;;;;;;;;5062573;28;20060;-73
2024/01/14 02:00:14;;;;;;;5.13;3.03;;;;;;;;;;5062324;28;20049;-74
2024/01/14 02:02:45;;;;;;;7.35;2.67;;;;;;;;;;5061747;28;20533;-74
2024/01/14 02:05:17;;;;;;;3.95;2.20;;;;;;;;;;5060972;28;20048;-74
2024/01/14 02:07:48;;;;;;;6.85;3.05;;;;;;;;;;5062147;28;20048;-74
2024/01/14 02:10:18;;;;;;;5.60;2.70;;;;;;;;;;5062240;28;20056;-74
2024/01/14 02:12:49;;;;;;;5.00;2.40;;;;;;;;;;5062462;28;20063;-74
2024/01/14 02:15:19;;;;;;;6.03;2.67;;;;;;;;;;5062382;28;20052;-74
2024/01/14 02:17:51;;;;;;;5.93;2.45;;;;;;;;;;5061836;28;20044;-74
2024/01/14 02:20:22;;;;;;;6.60;2.75;;;;;;;;;;5062583;28;20602;-73
2024/01/14 02:22:55;;;;;;;4.60;2.88;;;;;;;;;;5061871;28;20048;-74
2024/01/14 02:25:25;;;;;;;7.25;2.72;;;;;;;;;;5062232;28;20040;-74
2024/01/14 02:27:56;;;;;;;6.47;2.78;;;;;;;;;;5062156;28;20515;-73
2024/01/14 02:30:27;;;;;;;5.30;2.78;;;;;;;;;;5061965;28;20044;-73
2024/01/14 02:32:57;;;;;;;4.72;2.80;;;;;;;;;;5061962;28;20048;-74
2024/01/14 02:35:27;;;;;;;5.22;2.45;;;;;;;;;;5061704;28;20044;-74
2024/01/14 02:37:59;;;;;;;6.43;2.58;;;;;;;;;;5062011;28;20036;-74
2024/01/14 02:40:31;;;;;;;5.28;2.80;;;;;;;;;;5062610;28;20048;-74
2024/01/14 02:43:01;;;;;;;4.80;2.47;;;;;;;;;;5062109;28;20424;-74
2024/01/14 02:45:31;;;;;;;6.90;2.33;;;;;;;;;;5062467;28;20053;-74
2024/01/14 02:48:06;;;;;;;4.68;2.63;;;;;;;;;;5060654;28;20106;-73
2024/01/14 02:50:38;;;;;;;6.20;2.65;;;;;;;;;;5062553;28;20056;-73
2024/01/14 02:53:09;;;;;;;6.40;2.70;;;;;;;;;;5061833;28;20419;-74
2024/01/14 02:55:39;;;;;;;4.15;2.88;;;;;;;;;;5061338;28;20554;-73
2024/01/14 02:58:09;;;;;;;6.30;2.63;;;;;;;;;;5062071;28;20052;-74
2024/01/14 03:00:41;;;;;;;12.18;2.50;;;;;;;;;;5064951;28;20052;-74
2024/01/14 03:03:14;;;;;;;5.88;2.67;;;;;;;;;;5065741;28;20044;-73
2024/01/14 03:05:45;;;;;;;4.43;2.83;;;;;;;;;;5065980;28;20048;-74
2024/01/14 03:08:18;;;;;;;6.38;2.35;;;;;;;;;;5065694;28;20068;-74
2024/01/14 03:10:48;;;;;;;6.60;2.88;;;;;;;;;;5065694;28;20052;-74
2024/01/14 03:13:20;;;;;;;4.18;2.70;;;;;;;;;;5065765;28;20047;-73
2024/01/14 03:15:50;;;;;;;4.88;2.55;;;;;;;;;;5066211;28;20040;-73
2024/01/14 03:18:21;;;;;;;5.13;2.97;;;;;;;;;;5065544;28;20041;-73
2024/01/14 03:20:52;;;;;;;5.10;2.88;;;;;;;;;;5065984;28;20049;-73
2024/01/14 03:23:23;;;;;;;5.82;2.70;;;;;;;;;;5065606;28;20534;-72
2024/01/14 03:25:54;;;;;;;4.13;2.42;;;;;;;;;;5065533;28;20052;-74
2024/01/14 03:28:25;;;;;;;4.75;2.63;;;;;;;;;;5065155;28;20048;-73
2024/01/14 03:30:55;;;;;;;5.45;3.13;;;;;;;;;;5064909;28;20041;-73
2024/01/14 03:33:26;;;;;;;5.18;2.80;;;;;;;;;;5065419;28;20079;-73
2024/01/14 03:36:01;;;;;;;6.28;2.70;;;;;;;;;;5065685;28;20041;-74
2024/01/14 03:38:31;;;;;;;5.22;3.05;;;;;;;;;;5066432;28;20059;-74
2024/01/14 03:41:01;;;;;;;5.32;3.10;;;;;;;;;;5065135;28;20052;-74
2024/01/14 03:43:32;;;;;;;6.00;3.20;;;;;;;;;;5065299;28;20056;-74
2024/01/14 03:46:02;;;;;;;3.97;2.70;;;;;;;;;;5065126;28;20626;-74
2024/01/14 03:48:33;;;;;;;4.72;3.00;;;;;;;;;;5065245;28;20048;-72
2024/01/14 03:51:04;;;;;;;4.15;2.42;;;;;;;;;;5065243;28;20052;-73
2024/01/14 03:53:34;;;;;;;6.90;2.78;;;;;;;;;;5064842;28;20865;-74
2024/01/14 03:56:05;;;;;;;8.02;3.25;;;;;;;;;;5065202;28;20052;-73
2024/01/14 03:58:38;;;;;;;6.93;3.10;;;;;;;;;;5064717;28;20048;-74
2024/01/14 04:01:18;;;;;;;5.43;2.83;;;;;;;;;;5065306;28;20048;-74
2024/01/14 04:03:48;;;;;;;6.53;2.80;;;;;;;;;;5064756;28;20052;-73
2024/01/14 04:06:24;;;;;;;8.60;3.10;;;;;;;;;;5064636;28;20060;-73
2024/01/14 04:08:55;;;;;;;4.15;2.70;;;;;;;;;;5065171;28;20052;-73
2024/01/14 04:11:25;;;;;;;4.78;3.10;;;;;;;;;;5063508;28;20067;-74
2024/01/14 04:13:55;;;;;;;6.40;2.85;;;;;;;;;;5064279;28;20063;-74
2024/01/14 04:16:26;;;;;;;4.22;2.88;;;;;;;;;;5062978;28;20056;-75
2024/01/14 04:19:00;;;;;;;5.25;2.63;;;;;;;;;;5064516;28;20049;-73
2024/01/14 04:21:30;;;;;;;5.38;3.13;;;;;;;;;;5064554;28;20051;-74
2024/01/14 04:24:04;;;;;;;5.97;2.83;;;;;;;;;;5064646;28;20048;-74
2024/01/14 04:26:34;;;;;;;5.80;2.95;;;;;;;;;;5064121;28;20048;-74
2024/01/14 04:29:05;;;;;;;4.88;2.95;;;;;;;;;;5064124;28;20036;-73
2024/01/14 04:31:36;;;;;;;6.82;3.17;;;;;;;;;;5064727;28;20060;-72
2024/01/14 04:34:06;;;;;;;8.93;3.30;;;;;;;;;;5064738;28;20048;-73
2024/01/14 04:36:37;;;;;;;5.13;3.22;;;;;;;;;;5062869;28;20052;-73
2024/01/14 04:39:10;;;;;;;6.53;2.97;;;;;;;;;;5062867;28;20052;-73
2024/01/14 04:41:41;;;;;;;5.75;3.17;;;;;;;;;;5062538;28;20407;-73
2024/01/14 04:44:11;;;;;;;6.60;3.30;;;;;;;;;;5063590;28;20067;-74
2024/01/14 04:46:45;;;;;;;7.05;3.58;;;;;;;;;;5063724;28;20107;-73
2024/01/14 04:49:17;;;;;;;6.13;3.55;;;;;;;;;;5064113;28;20051;-72
2024/01/14 04:51:47;;;;;;;8.40;3.80;;;;;;;;;;5063716;28;20045;-74
2024/01/14 04:54:17;;;;;;;6.85;3.58;;;;;;;;;;5063791;28;20052;-73
2024/01/14 04:56:48;;;;;;;7.20;3.38;;;;;;;;;;5064077;28;20047;-73
2024/01/14 04:59:19;;;;;;;5.55;3.38;;;;;;;;;;5063538;28;20613;-73
2024/01/14 05:01:49;;;;;;;5.72;3.63;;;;;;;;;;5063665;28;20052;-74
2024/01/14 05:04:20;;;;;;;5.43;3.20;;;;;;;;;;5063799;28;20531;-74
2024/01/14 05:06:50;;;;;;;9.57;4.05;;;;;;;;;;5064967;28;20048;-73
2024/01/14 05:09:22;;;;;;;6.55;3.53;;;;;;;;;;5064592;28;20044;-74
2024/01/14 05:11:52;;;;;;;6.25;3.50;;;;;;;;;;5063543;28;20041;-74
2024/01/14 05:14:22;;;;;;;6.07;3.53;;;;;;;;;;5063137;28;20052;-73
2024/01/14 05:16:52;;;;;;;8.32;3.60;;;;;;;;;;5063011;28;20049;-73
2024/01/14 05:19:23;;;;;;;8.32;4.05;;;;;;;;;;5063256;28;20059;-74
2024/01/14 05:21:54;;;;;;;7.40;3.22;;;;;;;;;;5063082;28;20048;-74
2024/01/14 05:24:25;;;;;;;5.10;3.10;;;;;;;;;;5063448;28;20044;-74
2024/01/14 05:26:57;;;;;;;6.68;3.22;;;;;;;;;;5062743;28;20051;-74
2024/01/14 05:29:27;;;;;;;7.88;3.63;;;;;;;;;;5063056;28;20048;-73
2024/01/14 05:31:58;;;;;;;6.63;3.03;;;;;;;;;;5062849;28;20044;-74
2024/01/14 05:34:28;;;;;;;8.25;3.72;;;;;;;;;;5063090;28;20400;-73
2024/01/14 05:36:59;;;;;;;7.55;3.90;;;;;;;;;;5063657;28;20045;-72
2024/01/14 05:39:30;;;;;;;6.57;3.65;;;;;;;;;;5063294;28;20050;-73
2024/01/14 05:42:02;;;;;;;6.90;3.88;;;;;;;;;;5062627;28;20057;-77
2024/01/14 05:44:35;;;;;;;7.88;3.47;;;;;;;;;;5063576;28;20134;-73
2024/01/14 05:47:05;;;;;;;4.90;3.30;;;;;;;;;;5062838;28;20511;-73
2024/01/14 05:49:36;;;;;;;8.10;3.50;;;;;;;;;;5061778;28;20053;-73
2024/01/14 05:52:06;;;;;;;9.55;3.67;;;;;;;;;;5062600;28;20059;-73
2024/01/14 05:54:37;;;;;;;6.38;3.63;;;;;;;;;;5062492;28;20438;-73
2024/01/14 05:57:08;;;;;;;6.55;3.40;;;;;;;;;;5063041;28;20060;-74
2024/01/14 05:59:38;;;;;;;5.20;3.28;;;;;;;;;;5062883;28;20055;-73
2024/01/14 06:02:09;;;;;;;7.15;3.28;;;;;;;;;;5062376;28;20052;-73
2024/01/14 06:04:40;;;;;;;17.23;3.80;;;;;;;;;;5060964;28;20419;-74
2024/01/14 06:07:10;;;;;;;6.00;3.70;;;;;;;;;;5062673;28;20637;-73
2024/01/14 06:09:40;;;;;;;7.43;3.40;;;;;;;;;;5062662;28;20059;-73
2024/01/14 06:12:11;;;;;;;6.32;3.60;;;;;;;;;;5062473;28;20058;-74
2024/01/14 06:14:42;;;;;;;8.15;3.67;;;;;;;;;;5062373;28;20044;-74
2024/01/14 06:17:13;;;;;;;7.15;3.95;;;;;;;;;;5062179;28;20053;-74
2024/01/14 06:19:43;;;;;;;10.90;3.60;;;;;;;;;;5062410;28;20044;-73
2024/01/14 06:22:13;;;;;;;7.35;3.70;;;;;;;;;;5061079;28;20508;-74
2024/01/14 06:24:45;;;;;;;6.85;3.40;;;;;;;;;;5062712;28;20060;-74
2024/01/14 06:27:15;;;;;;;6.80;3.58;;;;;;;;;;5062500;28;20404;-73
2024/01/14 06:29:46;;;;;;;6.57;3.50;;;;;;;;;;5062076;28;20529;-74
2024/01/14 06:32:17;;;;;;;6.90;3.38;;;;;;;;;;5061785;28;20045;-73
2024/01/14 06:34:47;;;;;;;6.60;3.80;;;;;;;;;;5061658;28;20044;-74
2024/01/14 06:37:19;;;;;;;5.90;3.33;;;;;;;;;;5062139;28;20048;-74
2024/01/14 06:39:50;;;;;;;6.47;3.42;;;;;;;;;;5062127;28;20499;-73
2024/01/14 06:42:20;;;;;;;8.00;3.58;;;;;;;;;;5062146;28;20045;-73
2024/01/14 06:44:50;;;;;;;6.20;3.38;;;;;;;;;;5062854;28;20051;-73
2024/01/14 06:47:21;;;;;;;7.55;3.58;;;;;;;;;;5062286;28;20067;-73
2024/01/14 06:49:54;;;;;;;7.15;3.63;;;;;;;;;;5061844;28;20087;-73
2024/01/14 06:52:38;;;;;;;5.82;3.38;;;;;;;;;;5060741;28;20056;-73
2024/01/14 06:55:11;;;;;;;5.30;3.30;;;;;;;;;;5061764;28;21031;-73
2024/01/14 06:57:41;;;;;;;8.93;3.85;;;;;;;;;;5061846;28;20055;-73
2024/01/14 07:00:13;;;;;;;8.95;3.42;;;;;;;;;;5062290;28;20048;-73
2024/01/14 07:02:44;;;;;;;6.70;3.70;;;;;;;;;;5062830;28;20048;-73
2024/01/14 07:05:14;;;;;;;9.98;3.38;;;;;;;;;;5062548;28;20053;-74
2024/01/14 07:07:45;;;;;;;7.53;4.15;;;;;;;;;;5061617;28;20052;-74
2024/01/14 07:10:19;;;;;;;7.57;3.45;;;;;;;;;;5061890;28;20056;-73
2024/01/14 07:12:49;;;;;;;6.93;3.67;;;;;;;;;;5061579;28;20419;-74
2024/01/14 07:15:20;;;;;;;6.20;3.22;;;;;;;;;;5060262;28;20419;-74
2024/01/14 07:17:50;;;;;;;6.57;3.63;;;;;;;;;;5061497;28;20522;-72
2024/01/14 07:20:28;;;;;;;6.93;3.53;;;;;;;;;;5061661;28;20045;-73
2024/01/14 07:23:00;;;;;;;8.35;3.33;;;;;;;;;;5061355;28;20408;-74
2024/01/14 07:25:51;;;;;;;8.13;3.78;;;;;;;;;;5061720;28;20049;-72
2024/01/14 07:28:21;;;;;;;8.02;3.25;;;;;;;;;;5061490;28;20045;-74
2024/01/14 07:30:51;;;;;;;5.43;3.55;;;;;;;;;;5061353;28;20052;-74
2024/01/14 07:33:22;;;;;;;7.70;3.97;;;;;;;;;;5060832;28;20439;-73
2024/01/14 07:35:53;;;;;;;9.05;3.65;;;;;;;;;;5062252;28;20507;-73
2024/01/14 07:38:23;;;;;;;7.00;3.55;;;;;;;;;;5061979;28;20419;-74
2024/01/14 07:40:53;;;;;;;5.55;3.58;;;;;;;;;;5061272;28;20396;-73
2024/01/14 07:43:24;;;;;;;11.60;3.60;;;;;;;;;;5061431;28;20060;-73
2024/01/14 07:45:54;;;;;;;8.30;3.70;;;;;;;;;;5062861;28;20499;-74
2024/01/14 07:48:26;;;;;;;8.02;3.85;;;;;;;;;;5063944;28;20060;-73
2024/01/14 07:50:57;;;;;;;8.73;3.50;;;;;;;;;;5065100;28;20044;-73
2024/01/14 07:53:29;;;;;;;8.82;3.20;;;;;;;;;;5064237;28;20056;-73
2024/01/14 07:56:01;;;;;;;6.53;3.42;;;;;;;;;;5064829;28;20048;-74
2024/01/14 07:58:32;;;;;;;6.35;3.50;;;;;;;;;;5064700;28;20111;-73
2024/01/14 08:01:02;;;;;;;7.13;3.30;;;;;;;;;;5063914;28;20598;-73
2024/01/14 08:03:35;;;;;;;6.38;3.42;;;;;;;;;;5065049;28;20044;-73
2024/01/14 08:06:06;;;;;;;7.90;3.85;;;;;;;;;;5064986;28;20055;-73
2024/01/14 08:08:36;;;;;;;9.23;3.20;;;;;;;;;;5065159;28;20051;-73
2024/01/14 08:11:08;;;;;;;7.05;3.58;;;;;;;;;;5064920;28;20048;-74
2024/01/14 08:13:39;;;;;;;6.63;3.65;;;;;;;;;;5064733;28;20043;-74
2024/01/14 08:16:09;;;;;;;7.68;3.67;;;;;;;;;;5064787;28;20045;-73
2024/01/14 08:18:41;;;;;;;6.45;3.35;;;;;;;;;;5064715;28;20048;-73
2024/01/14 08:21:11;;;;;;;5.53;3.38;;;;;;;;;;5064488;28;20057;-74
2024/01/14 08:23:43;;;;;;;7.47;3.33;;;;;;;;;;5063572;28;20053;-74
2024/01/14 08:26:14;;;;;;;6.53;3.45;;;;;;;;;;5064323;28;20049;-74
2024/01/14 08:28:44;;;;;;;7.05;3.75;;;;;;;;;;5062659;28;20087;-73
2024/01/14 08:31:14;;;;;;;6.47;3.40;;;;;;;;;;5064523;28;20045;-73
2024/01/14 08:33:45;;;;;;;5.93;3.45;;;;;;;;;;5064379;28;20506;-73
2024/01/14 08:36:16;;;;;;;6.55;3.22;;;;;;;;;;5063977;28;20068;-73
2024/01/14 08:38:46;;;;;;;7.05;3.75;;;;;;;;;;5062581;28;20404;-73
2024/01/14 08:41:16;;;;;;;6.90;3.85;;;;;;;;;;5064487;28;20407;-73
2024/01/14 08:43:47;;;;;;;5.78;3.40;;;;;;;;;;5062494;28;20052;-73
2024/01/14 08:46:17;;;;;;;8.05;3.25;;;;;;;;;;5063589;28;20037;-73
2024/01/14 08:48:48;;;;;;;5.90;3.17;;;;;;;;;;5064505;28;20055;-74
2024/01/14 08:51:18;;;;;;;6.43;3.40;;;;;;;;;;5063812;28;20529;-73
2024/01/14 08:53:50;;;;;;;9.52;3.83;;;;;;;;;;5063854;28;20048;-73
2024/01/14 08:56:21;;;;;;;10.60;3.40;;;;;;;;;;5064485;28;20055;-73
2024/01/14 08:58:51;;;;;;;4.75;3.13;;;;;;;;;;5063318;28;20479;-73
2024/01/14 09:01:22;;;;;;;5.55;3.17;;;;;;;;;;5064491;28;20419;-73
2024/01/14 09:03:53;;;;;;;5.45;3.30;;;;;;;;;;5063528;28;20594;-73
2024/01/14 09:06:24;;;;;;;11.25;3.35;;;;;;;;;;5062013;28;20063;-74
2024/01/14 09:08:55;;;;;;;5.72;3.10;;;;;;;;;;5063284;28;20044;-74
2024/01/14 09:11:25;;;;;;;5.72;3.60;;;;;;;;;;5063355;28;20048;-73
2024/01/14 09:13:55;;;;;;;6.43;3.33;;;;;;;;;;5063234;28;20423;-73
2024/01/14 09:16:27;;;;;;;5.35;3.38;;;;;;;;;;5063420;28;20411;-73
2024/01/14 09:18:58;;;;;;;5.38;3.38;;;;;;;;;;5062905;28;20056;-73
2024/01/14 09:21:29;;;;;;;10.45;3.28;;;;;;;;;;5063214;28;20052;-73
2024/01/14 09:24:02;;;;;;;6.57;3.35;;;;;;;;;;5063465;28;20048;-73
2024/01/14 09:26:32;;;;;;;5.97;3.13;;;;;;;;;;5063392;28;20538;-73
2024/01/14 09:29:04;;;;;;;5.13;2.92;;;;;;;;;;5063481;28;20049;-73
2024/01/14 09:31:34;;;;;;;6.60;3.13;;;;;;;;;;5063483;28;20048;-74
2024/01/14 09:34:04;;;;;;;7.22;3.05;;;;;;;;;;5063561;28;20063;-72
2024/01/14 09:36:36;;;;;;;4.63;3.20;;;;;;;;;;5061808;28;20056;-74
2024/01/14 09:39:10;;;;;;;6.03;3.15;;;;;;;;;;5062753;28;20569;-73
2024/01/14 09:42:00;;;;;;;8.23;3.65;;;;;;;;;;5062401;28;20381;-74
2024/01/14 09:44:30;;;;;;;4.57;2.85;;;;;;;;;;5062899;28;20048;-74
2024/01/14 09:47:00;;;;;;;6.03;2.80;;;;;;;;;;5062920;28;20063;-73
2024/01/14 09:49:31;;;;;;;6.95;3.00;;;;;;;;;;5062767;28;20052;-74
2024/01/14 09:52:05;;;;;;;5.80;2.95;;;;;;;;;;5062349;28;20045;-73
2024/01/14 09:54:36;;;;;;;5.32;2.70;;;;;;;;;;5062897;28;20048;-73
2024/01/14 09:57:11;;;;;;;5.90;3.58;;;;;;;;;;5062483;28;20048;-73
2024/01/14 09:59:44;;;;;;;4.05;2.67;;;;;;;;;;5062963;28;20241;-73
2024/01/14 10:02:15;;;;;;;11.43;2.88;;;;;;;;;;5061525;28;20111;-73
2024/01/14 10:04:45;;;;;;;8.23;2.70;;;;;;;;;;5063011;28;20518;-73
2024/01/14 10:07:18;;;;;;;6.00;3.08;;;;;;;;;;5062853;28;20059;-74
2024/01/14 10:09:50;;;;;;;8.25;3.13;;;;;;;;;;5060735;28;20059;-73
2024/01/14 10:12:21;;;;;;;6.78;2.70;;;;;;;;;;5063413;28;20048;-73
2024/01/14 10:15:01;;;;;;;3.80;2.50;;;;;;;;;;5062214;28;20049;-73
2024/01/14 10:17:33;;;;;;;4.57;2.47;;;;;;;;;;5062107;28;20048;-74
2024/01/14 10:20:06;;;;;;;6.50;2.25;;;;;;;;;;5062070;28;20044;-74
2024/01/14 10:22:37;;;;;;;4.65;2.85;;;;;;;;;;5061305;28;20053;-73
2024/01/14 10:25:07;;;;;;;3.75;2.38;;;;;;;;;;5061942;28;20051;-73
2024/01/14 10:27:38;;;;;;;6.50;2.17;;;;;;;;;;5062150;28;20048;-73
2024/01/14 10:30:10;;;;;;;7.65;2.40;;;;;;;;;;5062451;28;20625;-73
2024/01/14 10:32:45;;;;;;;3.00;1.92;;;;;;;;;;5061914;28;20507;-74
2024/01/14 10:35:36;;;;;;;5.60;2.10;;;;;;;;;;5062024;28;20059;-74
2024/01/14 10:38:07;;;;;;;3.45;2.13;;;;;;;;;;5062149;28;20546;-73
2024/01/14 10:40:37;;;;;;;3.92;2.17;;;;;;;;;;5060732;28;20052;-74
2024/01/14 10:43:08;;;;;;;3.95;2.00;;;;;;;;;;5061538;28;20052;-74
2024/01/14 10:45:40;;;;;;;4.82;1.70;;;;;;;;;;5061912;28;20040;-73
2024/01/14 10:48:12;;;;;;;3.30;1.85;;;;;;;;;;5062396;28;20044;-74
2024/01/14 10:50:50;;;;;;;5.15;1.63;;;;;;;;;;5061696;28;20048;-74
2024/01/14 10:53:23;;;;;;;2.08;1.45;;;;;;;;;;5062677;28;20384;-73
2024/01/14 10:56:01;;;;;;;3.08;1.50;;;;;;;;;;5062000;28;20051;-74
2024/01/14 10:58:36;;;;;;;2.55;1.50;;;;;;;;;;5062069;28;20052;-74
2024/01/14 11:01:14;;;;;;;2.03;1.17;;;;;;;;;;5062165;28;20032;-74
2024/01/14 11:03:47;;;;;;;2.83;1.42;;;;;;;;;;5061618;28;20044;-73
2024/01/14 11:06:22;;;;;;;1.88;1.30;;;;;;;;;;5062151;28;20047;-74
2024/01/14 11:08:55;;;;;;;2.17;1.25;;;;;;;;;;5062312;28;20056;-77
2024/01/14 11:11:37;;;;;;;2.53;1.50;;;;;;;;;;5062113;28;20489;-75
2024/01/14 11:14:18;;;;;;;1.63;1.10;;;;;;;;;;5062003;28;20052;-73
2024/01/14 11:17:12;;;;;;;2.22;1.40;;;;;;;;;;5061649;28;20766;-74
2024/01/14 11:19:43;;;;;;;1.60;1.17;;;;;;;;;;5061952;28;20427;-73
2024/01/14 11:22:26;;;;;;;3.38;1.05;;;;;;;;;;5066150;28;20048;-74
2024/01/14 11:25:16;;;;;;;2.25;1.20;;;;;;;;;;5066365;28;21165;-74
2024/01/14 11:27:46;;;;;;;1.73;0.95;;;;;;;;;;5066296;28;20044;-74
2024/01/14 11:30:40;;;;;;;1.35;0.90;;;;;;;;;;5065902;28;20423;-74
2024/01/14 11:33:40;;;;;;;2.90;1.30;;;;;;;;;;5065046;28;20076;-76
2024/01/14 11:36:10;;;;;;;;;;;;;;;;;;5065589;28;20036;-74
2024/01/14 11:39:05;;;;;;;2.80;1.17;;;;;;;;;;5065287;28;19924;-74
2024/01/14 11:41:35;;;;;;;1.40;1.13;;;;;;;;;;5065930;28;20495;-74
2024/01/14 11:44:10;;;;;;;2.88;1.13;;;;;;;;;;5065713;28;20517;-74
2024/01/14 11:46:42;;;;;;;2.50;1.23;;;;;;;;;;5064626;28;20056;-75
2024/01/14 11:49:26;;;;;;;2.05;1.30;;;;;;;;;;5064933;28;20415;-74
2024/01/14 11:52:02;;;;;;;3.70;1.40;;;;;;;;;;5065192;28;20380;-76
2024/01/14 11:54:35;;;;;;;5.20;1.50;;;;;;;;;;5065314;28;20420;-80
2024/01/14 11:57:25;;;;;;;1.70;1.10;;;;;;;;;;5065413;28;20527;-74
2024/01/14 11:59:55;;;;;;;2.13;1.15;;;;;;;;;;5065335;28;20514;-75
2024/01/14 12:02:25;;;;;;;2.13;1.10;;;;;;;;;;5065700;28;20051;-75
2024/01/14 12:04:56;;;;;;;1.52;1.10;;;;;;;;;;5065055;28;20053;-75
2024/01/14 12:07:39;;;;;;;2.08;1.10;;;;;;;;;;5064239;28;20067;-74
2024/01/14 12:10:14;;;;;;;2.95;1.20;;;;;;;;;;5065091;28;20048;-72
2024/01/14 12:12:45;;;;;;;2.75;1.33;;;;;;;;;;5065042;28;20052;-72
2024/01/14 12:15:15;;;;;;;1.40;1.20;;;;;;;;;;5065127;28;20499;-73
2024/01/14 12:18:00;;;;;;;1.90;1.27;;;;;;;;;;5062769;28;20056;-72
2024/01/14 12:20:31;;;;;;;1.55;1.00;;;;;;;;;;5063706;28;20044;-72
2024/01/14 12:23:04;;;;;;;1.60;1.33;;;;;;;;;;5064270;28;20040;-72
2024/01/14 12:25:38;;;;;;;5.35;1.45;;;;;;;;;;5064252;28;20055;-73
2024/01/14 12:28:09;;;;;;;2.20;1.40;;;;;;;;;;5064819;28;20044;-74
2024/01/14 12:30:39;;;;;;;2.33;1.20;;;;;;;;;;5064962;28;20114;-75
2024/01/14 12:33:10;;;;;;;4.40;1.30;;;;;;;;;;5062243;28;20475;-74
2024/01/14 12:35:42;;;;;;;1.40;1.00;;;;;;;;;;5064618;28;20045;-73
2024/01/14 12:38:13;;;;;;;3.20;1.30;;;;;;;;;;5064528;28;20055;-74
2024/01/14 12:40:43;;;;;;;1.83;1.00;;;;;;;;;;5064206;28;20055;-73
2024/01/14 12:43:15;;;;;;;1.40;1.17;;;;;;;;;;5064351;28;21027;-74
2024/01/14 12:45:51;;;;;;;3.78;1.80;;;;;;;;;;5063114;28;20499;-73
2024/01/14 12:48:25;;;;;;;1.42;0.95;;;;;;;;;;5064496;28;20060;-73
2024/01/14 12:50:58;;;;;;;1.20;0.90;;;;;;;;;;5063769;28;20388;-77
2024/01/14 12:53:30;;;;;;;3.55;1.27;;;;;;;;;;5063549;28;20067;-75
2024/01/14 12:56:17;;;;;;;5.05;2.70;;;;;;;;;;5064351;28;20055;-74
2024/01/14 12:58:48;;;;;;;1.98;0.95;;;;;;;;;;5063584;28;20045;-74
2024/01/14 13:01:19;;;;;;;1.95;1.02;;;;;;;;;;5063384;28;20045;-73
2024/01/14 13:03:50;;;;;;;3.97;1.00;;;;;;;;;;5063030;28;20544;-75
2024/01/14 13:06:20;;;;;;;1.52;0.98;;;;;;;;;;5062226;28;20048;-75
2024/01/14 13:08:51;;;;;;;3.03;0.90;;;;;;;;;;5060380;28;20059;-74
2024/01/14 13:11:21;;;;;;;3.17;1.10;;;;;;;;;;5063131;28;20052;-75
2024/01/14 13:13:52;;;;;;;7.18;1.30;;;;;;;;;;5063483;28;20049;-74
2024/01/14 13:16:22;;;;;;;1.48;1.00;;;;;;;;;;5063477;28;20052;-73
2024/01/14 13:18:53;;;;;;;2.35;1.00;;;;;;;;;;5064566;28;20052;-74
2024/01/14 13:21:25;;;;;;;2.70;1.20;;;;;;;;;;5062639;28;20048;-73
2024/01/14 13:23:56;;;;;;;6.13;1.30;;;;;;;;;;5064047;28;20060;-74
2024/01/14 13:26:40;;;;;;;5.25;1.20;;;;;;;;;;5063209;28;20052;-74
2024/01/14 13:29:12;;;;;;;3.15;1.10;;;;;;;;;;5063163;28;20115;-74
2024/01/14 13:31:42;;;;;;;1.10;0.98;;;;;;;;;;5062916;28;20045;-75
2024/01/14 13:34:15;;;;;;;2.28;1.08;;;;;;;;;;5063110;28;20055;-74
2024/01/14 13:36:45;;;;;;;3.30;1.27;;;;;;;;;;5050355;28;20535;-74
2024/01/14 13:39:17;;;;;;;1.65;1.08;;;;;;;;;;5041912;28;20435;-74
2024/01/14 13:41:48;;;;;;;2.00;1.00;;;;;;;;;;5042527;28;20049;-74
2024/01/14 13:44:19;;;;;;;4.68;1.20;;;;;;;;;;5042351;28;20052;-74
2024/01/14 13:46:48;;;;;;;3.15;1.20;;;;;;;;;;5042552;28;20037;-74
2024/01/14 13:49:19;;;;;;;4.50;1.30;;;;;;;;;;5042782;28;20048;-77
2024/01/14 13:51:50;;;;;;;1.50;1.02;;;;;;;;;;5042472;28;20049;-75
2024/01/14 13:54:21;;;;;;;1.48;0.98;;;;;;;;;;5043481;28;20504;-77
2024/01/14 13:56:54;;;;;;;3.88;1.20;;;;;;;;;;5047683;28;20052;-74
2024/01/14 13:59:25;;;;;;;2.15;1.00;;;;;;;;;;5062588;28;20564;-76
2024/01/14 14:01:55;;;;;;;1.17;0.93;;;;;;;;;;5062987;28;20052;-76
2024/01/14 14:04:26;;;;;;;3.40;1.00;;;;;;;;;;5061956;28;20048;-75
2024/01/14 14:06:57;;;;;;;2.75;1.45;;;;;;;;;;5061124;28;20059;-77
2024/01/14 14:09:28;;;;;;;2.10;1.10;;;;;;;;;;5062567;28;20044;-76
2024/01/14 14:11:59;;;;;;;2.45;1.30;;;;;;;;;;5062715;28;20425;-75
2024/01/14 14:14:29;;;;;;;4.78;1.90;;;;;;;;;;5062709;28;20059;-76
2024/01/14 14:16:59;;;;;;;2.88;1.52;;;;;;;;;;5060582;28;20059;-75
2024/01/14 14:19:30;;;;;;;2.10;1.10;;;;;;;;;;5061755;28;20060;-76
2024/01/14 14:22:01;;;;;;;2.78;1.30;;;;;;;;;;5062780;28;20059;-79
2024/01/14 14:24:34;;;;;;;4.03;1.35;;;;;;;;;;5062894;28;20518;-75
2024/01/14 14:27:05;;;;;;;2.55;1.13;;;;;;;;;;5061905;28;20049;-75
2024/01/14 14:29:35;;;;;;;16.90;1.75;;;;;;;;;;5063019;28;20051;-77
2024/01/14 14:32:07;;;;;;;1.90;1.17;;;;;;;;;;5062128;28;20051;-75
2024/01/14 14:34:39;;;;;;;2.15;1.52;;;;;;;;;;5062094;28;20051;-76
2024/01/14 14:37:10;;;;;;;4.63;1.33;;;;;;;;;;5062026;28;20438;-75
2024/01/14 14:39:40;;;;;;;2.28;1.20;;;;;;;;;;5060819;28;20496;-74
2024/01/14 14:42:11;;;;;;;3.08;1.48;;;;;;;;;;5060710;28;20530;-74
2024/01/14 14:44:41;;;;;;;4.80;1.50;;;;;;;;;;5062388;28;20427;-74
2024/01/14 14:47:12;;;;;;;2.72;1.20;;;;;;;;;;5060801;28;20052;-74
2024/01/14 14:49:44;;;;;;;2.47;1.13;;;;;;;;;;5060637;28;20048;-75
2024/01/14 14:52:16;;;;;;;1.58;1.00;;;;;;;;;;5061946;28;20062;-76
2024/01/14 14:54:47;;;;;;;2.92;1.10;;;;;;;;;;5061821;28;20594;-75
2024/01/14 14:57:17;;;;;;;1.38;0.90;;;;;;;;;;5068303;28;20048;-75
2024/01/14 14:59:48;;;;;;;2.67;1.23;;;;;;;;;;5068928;28;20040;-75
2024/01/14 15:02:19;;;;;;;2.72;1.38;;;;;;;;;;5069000;28;20044;-76
2024/01/14 15:04:50;;;;;;;2.05;1.30;;;;;;;;;;5067587;28;20044;-75
2024/01/14 15:07:20;;;;;;;3.67;1.35;;;;;;;;;;5068551;28;20503;-75
2024/01/14 15:09:50;;;;;;;2.80;1.40;;;;;;;;;;5068220;28;20044;-74
2024/01/14 15:12:22;;;;;;;2.75;1.40;;;;;;;;;;5068487;28;20056;-75